createdAt,value
2019-02-24T00:01:02.260Z,61.44
2019-02-24T00:03:34.022Z,61.47
2019-02-24T00:06:05.156Z,61.47
2019-02-24T00:08:36.405Z,61.21
2019-02-24T00:11:09.732Z,61.18
2019-02-24T00:13:41.966Z,61.35
2019-02-24T00:16:13.418Z,61.68
2019-02-24T00:18:44.758Z,61.17
2019-02-24T00:21:16.318Z,61.41
2019-02-24T00:23:47.926Z,61.33
2019-02-24T00:26:19.225Z,61.04
2019-02-24T00:28:50.683Z,60.62
2019-02-24T00:31:21.910Z,60.97
2019-02-24T00:33:53.359Z,60.76
2019-02-24T00:36:24.434Z,61.02
2019-02-24T00:38:55.858Z,60.89
2019-02-24T00:41:27.204Z,61.39
2019-02-24T00:43:58.855Z,61.02
2019-02-24T00:46:30.201Z,60.42
2019-02-24T00:49:01.655Z,61.38
2019-02-24T00:51:32.791Z,61.41
2019-02-24T00:54:05.677Z,61.52
2019-02-24T00:56:37.127Z,60.81
2019-02-24T00:59:08.787Z,61.93
2019-02-24T01:01:41.691Z,61.54
2019-02-24T01:04:13.012Z,61.64
2019-02-24T01:06:44.320Z,61.41
2019-02-24T01:09:15.933Z,61.52
2019-02-24T01:11:47.270Z,61.18
2019-02-24T01:14:18.509Z,61.12
2019-02-24T01:16:49.853Z,61.35
2019-02-24T01:19:21.307Z,61.34
2019-02-24T01:21:52.652Z,61.60
2019-02-24T01:24:24.136Z,62.14
2019-02-24T01:26:55.450Z,61.85
2019-02-24T01:29:26.597Z,62.15
2019-02-24T01:31:58.050Z,62.47
2019-02-24T01:34:29.290Z,62.09
2019-02-24T01:37:00.841Z,62.07
2019-02-24T01:39:32.085Z,61.49
2019-02-24T01:42:04.048Z,61.29
2019-02-24T01:44:35.497Z,61.17
2019-02-24T01:47:06.779Z,61.49
2019-02-24T01:49:38.298Z,61.28
2019-02-24T01:52:10.055Z,60.99
2019-02-24T01:54:41.404Z,61.44
2019-02-24T01:57:12.753Z,60.33
2019-02-24T01:59:44.206Z,60.63
2019-02-24T02:02:15.884Z,60.19
2019-02-24T02:04:47.308Z,60.22
2019-02-24T02:07:18.758Z,60.20
2019-02-24T02:09:49.905Z,59.72
2019-02-24T02:12:21.247Z,60.74
2019-02-24T02:14:52.695Z,61.31
2019-02-24T02:17:24.048Z,61.31
2019-02-24T02:19:55.498Z,61.53
2019-02-24T02:22:26.842Z,61.44
2019-02-24T02:24:58.291Z,61.88
2019-02-24T02:27:29.540Z,62.08
2019-02-24T02:30:01.815Z,62.21
2019-02-24T02:32:33.359Z,62.61
2019-02-24T02:35:06.140Z,62.48
2019-02-24T02:37:37.295Z,62.72
2019-02-24T02:40:08.978Z,62.87
2019-02-24T02:42:40.490Z,63.11
2019-02-24T02:45:12.663Z,63.12
2019-02-24T02:47:43.808Z,63.48
2019-02-24T02:50:15.257Z,63.06
2019-02-24T02:52:47.115Z,62.96
2019-02-24T02:55:18.662Z,63.34
2019-02-24T02:57:50.119Z,62.84
2019-02-24T03:00:30.880Z,62.81
2019-02-24T03:03:02.390Z,63.06
2019-02-24T03:05:33.689Z,63.36
2019-02-24T03:08:06.777Z,63.97
2019-02-24T03:10:38.016Z,62.50
2019-02-24T03:13:09.770Z,62.54
2019-02-24T03:15:40.921Z,63.88
2019-02-24T03:18:12.469Z,63.82
2019-02-24T03:20:43.714Z,63.13
2019-02-24T03:23:15.162Z,62.92
2019-02-24T03:25:46.411Z,62.77
2019-02-24T03:28:17.881Z,62.82
2019-02-24T03:30:49.134Z,62.36
2019-02-24T03:33:20.655Z,61.81
2019-02-24T03:35:51.694Z,61.98
2019-02-24T03:38:23.145Z,63.47
2019-02-24T03:40:54.410Z,62.64
2019-02-24T03:43:25.637Z,62.42
2019-02-24T03:45:57.912Z,61.55
2019-02-24T03:48:29.367Z,62.40
2019-02-24T03:51:00.710Z,63.04
2019-02-24T03:53:32.584Z,62.10
2019-02-24T03:56:03.820Z,61.49
2019-02-24T03:58:35.260Z,62.29
2019-02-24T04:01:06.507Z,62.69
2019-02-24T04:03:38.371Z,62.11
2019-02-24T04:06:09.724Z,62.79
2019-02-24T04:08:41.170Z,62.38
2019-02-24T04:11:12.303Z,62.01
2019-02-24T04:13:43.764Z,64.19
2019-02-24T04:16:15.006Z,64.49
2019-02-24T04:18:46.456Z,65.58
2019-02-24T04:21:17.694Z,66.74
2019-02-24T04:23:49.149Z,67.56
2019-02-24T04:26:20.184Z,68.70
2019-02-24T04:28:51.329Z,69.11
2019-02-24T04:31:22.782Z,68.34
2019-02-24T04:33:54.641Z,68.41
2019-02-24T04:36:25.993Z,68.16
2019-02-24T04:38:57.542Z,67.88
2019-02-24T04:41:28.887Z,67.78
2019-02-24T04:44:00.751Z,67.17
2019-02-24T04:46:31.991Z,67.21
2019-02-24T04:49:03.447Z,67.90
2019-02-24T04:51:37.656Z,67.28
2019-02-24T04:54:09.416Z,66.94
2019-02-24T04:56:40.765Z,67.12
2019-02-24T04:59:12.217Z,66.43
2019-02-24T05:01:43.867Z,65.79
2019-02-24T05:04:15.581Z,65.24
2019-02-24T05:06:46.773Z,64.61
2019-02-24T05:09:18.233Z,64.59
2019-02-24T05:11:49.872Z,64.44
2019-02-24T05:14:22.968Z,64.33
2019-02-24T05:16:55.642Z,63.79
2019-02-24T05:19:27.198Z,63.69
2019-02-24T05:21:58.545Z,62.97
2019-02-24T05:24:30.088Z,62.90
2019-02-24T05:27:01.242Z,63.17
2019-02-24T05:29:32.584Z,62.91
2019-02-24T05:32:05.262Z,62.54
2019-02-24T05:34:36.718Z,62.60
2019-02-24T05:37:07.863Z,62.26
2019-02-24T05:39:40.444Z,62.41
2019-02-24T05:42:11.890Z,62.00
2019-02-24T05:44:43.231Z,62.22
2019-02-24T05:47:14.886Z,62.53
2019-02-24T05:49:46.233Z,62.96
2019-02-24T05:52:17.788Z,62.50
2019-02-24T05:54:51.844Z,63.63
2019-02-24T05:57:23.045Z,63.85
2019-02-24T05:59:55.574Z,64.24
2019-02-24T06:02:27.182Z,65.20
2019-02-24T06:04:58.417Z,64.72
2019-02-24T06:07:29.777Z,63.72
2019-02-24T06:10:01.346Z,63.11
2019-02-24T06:12:33.179Z,63.21
2019-02-24T06:15:06.121Z,62.52
2019-02-24T06:17:37.302Z,61.61
2019-02-24T06:20:08.973Z,61.00
2019-02-24T06:22:40.660Z,60.66
2019-02-24T06:25:12.175Z,60.22
2019-02-24T06:27:43.624Z,60.44
2019-02-24T06:30:14.857Z,59.67
2019-02-24T06:32:46.420Z,59.50
2019-02-24T06:35:17.776Z,59.28
2019-02-24T06:37:49.358Z,58.99
2019-02-24T06:40:20.774Z,58.41
2019-02-24T06:42:52.322Z,58.43
2019-02-24T06:45:23.867Z,57.36
2019-02-24T06:47:55.621Z,57.21
2019-02-24T06:50:35.022Z,57.39
2019-02-24T06:53:01.627Z,56.92
2019-02-24T06:55:32.953Z,56.25
2019-02-24T06:58:04.431Z,56.49
2019-02-24T07:00:35.947Z,55.54
2019-02-24T07:03:07.734Z,54.91
2019-02-24T07:05:38.949Z,55.08
2019-02-24T07:08:10.400Z,53.71
2019-02-24T07:10:41.949Z,53.90
2019-02-24T07:13:13.506Z,52.38
2019-02-24T07:15:45.263Z,52.11
2019-02-24T07:18:16.539Z,51.75
2019-02-24T07:20:48.159Z,51.21
2019-02-24T07:23:19.817Z,50.56
2019-02-24T07:25:51.198Z,49.29
2019-02-24T07:28:22.826Z,49.93
2019-02-24T07:30:54.376Z,50.50
2019-02-24T07:33:26.143Z,48.63
2019-02-24T07:35:57.588Z,47.78
2019-02-24T07:38:29.030Z,46.67
2019-02-24T07:41:00.456Z,46.66
2019-02-24T07:43:31.933Z,47.67
2019-02-24T07:46:03.383Z,46.43
2019-02-24T07:48:34.839Z,45.53
2019-02-24T07:51:06.191Z,45.53
2019-02-24T07:53:38.140Z,44.72
2019-02-24T07:56:09.796Z,45.27
2019-02-24T07:58:42.068Z,45.44
2019-02-24T08:01:13.522Z,44.74
2019-02-24T08:03:44.566Z,43.57
2019-02-24T08:06:16.519Z,45.07
2019-02-24T08:08:48.172Z,45.93
2019-02-24T08:11:19.841Z,45.02
2019-02-24T08:13:51.586Z,44.47
2019-02-24T08:16:22.232Z,44.38
2019-02-24T08:18:53.662Z,44.67
2019-02-24T08:21:24.950Z,44.85
2019-02-24T08:23:56.569Z,45.00
2019-02-24T08:26:27.248Z,43.98
2019-02-24T08:28:59.584Z,44.75
2019-02-24T08:31:30.891Z,45.09
2019-02-24T08:34:02.674Z,45.09
2019-02-24T08:36:34.023Z,44.13
2019-02-24T08:39:05.072Z,43.97
2019-02-24T08:41:36.114Z,43.93
2019-02-24T08:44:07.861Z,44.95
2019-02-24T08:46:39.308Z,44.76
2019-02-24T08:49:10.764Z,44.08
2019-02-24T08:51:42.524Z,43.67
2019-02-24T08:54:14.323Z,43.21
2019-02-24T08:56:45.929Z,43.43
2019-02-24T08:59:17.279Z,43.22
2019-02-24T09:01:49.051Z,42.62
2019-02-24T09:04:20.901Z,43.54
2019-02-24T09:06:53.481Z,43.72
2019-02-24T09:09:25.128Z,43.26
2019-02-24T09:11:56.802Z,41.59
2019-02-24T09:14:28.447Z,42.19
2019-02-24T09:16:59.204Z,41.64
2019-02-24T09:19:31.748Z,40.57
2019-02-24T09:22:03.199Z,40.78
2019-02-24T09:24:34.753Z,41.34
2019-02-24T09:27:06.310Z,41.90
2019-02-24T09:29:37.650Z,39.64
2019-02-24T09:32:09.119Z,39.04
2019-02-24T09:34:40.567Z,38.23
2019-02-24T09:37:12.099Z,39.34
2019-02-24T09:39:43.557Z,38.82
2019-02-24T09:42:15.221Z,40.03
2019-02-24T09:44:45.872Z,39.74
2019-02-24T09:47:16.887Z,38.93
2019-02-24T09:49:48.426Z,39.12
2019-02-24T09:52:19.580Z,41.03
2019-02-24T09:54:50.513Z,40.95
2019-02-24T09:57:22.172Z,40.64
2019-02-24T09:59:53.820Z,40.17
2019-02-24T10:02:25.826Z,40.11
2019-02-24T10:04:57.173Z,39.68
2019-02-24T10:07:28.614Z,39.72
2019-02-24T10:10:00.355Z,39.12
2019-02-24T10:12:31.795Z,38.72
2019-02-24T10:15:03.650Z,38.82
2019-02-24T10:17:35.203Z,38.38
2019-02-24T10:20:09.025Z,38.07
2019-02-24T10:22:40.371Z,38.39
2019-02-24T10:25:11.604Z,38.09
2019-02-24T10:27:42.747Z,38.66
2019-02-24T10:30:15.813Z,38.21
2019-02-24T10:32:47.049Z,37.38
2019-02-24T10:35:18.739Z,37.49
2019-02-24T10:37:50.478Z,37.15
2019-02-24T10:40:22.074Z,37.28
2019-02-24T10:42:53.289Z,37.13
2019-02-24T10:45:24.739Z,37.68
2019-02-24T10:47:56.192Z,37.25
2019-02-24T10:50:27.904Z,37.42
2019-02-24T10:52:59.656Z,37.20
2019-02-24T10:55:31.294Z,37.62
2019-02-24T10:58:03.337Z,37.92
2019-02-24T11:00:34.669Z,37.53
2019-02-24T11:03:06.360Z,36.34
2019-02-24T11:05:37.618Z,36.66
2019-02-24T11:08:09.244Z,36.66
2019-02-24T11:10:40.317Z,36.68
2019-02-24T11:13:11.218Z,36.71
2019-02-24T11:15:43.151Z,37.32
2019-02-24T11:18:14.309Z,37.09
2019-02-24T11:20:46.678Z,37.69
2019-02-24T11:23:17.570Z,38.05
2019-02-24T11:25:48.959Z,37.89
2019-02-24T11:28:19.713Z,37.83
2019-02-24T11:30:51.756Z,37.96
2019-02-24T11:33:23.106Z,38.21
2019-02-24T11:35:54.363Z,38.07
2019-02-24T11:38:25.804Z,38.45
2019-02-24T11:40:57.511Z,38.45
2019-02-24T11:43:28.432Z,38.67
2019-02-24T11:45:59.437Z,38.65
2019-02-24T11:48:30.817Z,38.65
2019-02-24T11:51:02.343Z,38.46
2019-02-24T11:53:33.686Z,38.67
2019-02-24T11:56:04.927Z,38.53
2019-02-24T11:58:35.600Z,38.35
2019-02-24T12:01:06.667Z,38.43
2019-02-24T12:03:38.264Z,38.75
2019-02-24T12:06:09.497Z,38.76
2019-02-24T12:08:40.272Z,38.52
2019-02-24T12:11:11.685Z,38.05
2019-02-24T12:13:44.470Z,37.98
2019-02-24T12:16:15.788Z,37.78
2019-02-24T12:18:47.674Z,37.71
2019-02-24T12:21:18.695Z,38.70
2019-02-24T12:23:50.273Z,38.05
2019-02-24T12:26:21.735Z,37.90
2019-02-24T12:28:53.187Z,37.80
2019-02-24T12:31:24.421Z,37.88
2019-02-24T12:33:56.901Z,37.56
2019-02-24T12:36:28.343Z,37.31
2019-02-24T12:39:00.181Z,36.72
2019-02-24T12:41:31.294Z,36.50
2019-02-24T12:44:02.991Z,36.67
2019-02-24T12:46:33.863Z,36.64
2019-02-24T12:49:04.874Z,36.34
2019-02-24T12:51:36.934Z,36.50
2019-02-24T12:54:09.509Z,36.96
2019-02-24T12:56:40.964Z,37.00
2019-02-24T12:59:12.615Z,37.75
2019-02-24T13:01:44.397Z,37.01
2019-02-24T13:04:15.721Z,36.93
2019-02-24T13:06:46.982Z,36.82
2019-02-24T13:09:19.620Z,36.74
2019-02-24T13:11:50.790Z,36.74
2019-02-24T13:14:22.442Z,36.85
2019-02-24T13:16:53.696Z,36.76
2019-02-24T13:19:24.956Z,36.94
2019-02-24T13:21:56.487Z,36.77
2019-02-24T13:24:27.736Z,36.71
2019-02-24T13:26:59.332Z,36.08
2019-02-24T13:29:30.255Z,35.48
2019-02-24T13:32:02.195Z,35.54
2019-02-24T13:34:33.651Z,35.21
2019-02-24T13:37:04.782Z,35.40
2019-02-24T13:39:36.276Z,35.24
2019-02-24T13:42:07.895Z,35.38
2019-02-24T13:44:39.549Z,35.50
2019-02-24T13:47:11.116Z,35.82
2019-02-24T13:49:43.085Z,36.08
2019-02-24T13:52:14.709Z,36.10
2019-02-24T13:54:46.055Z,36.31
2019-02-24T13:57:17.614Z,36.39
2019-02-24T13:59:49.058Z,36.60
2019-02-24T14:02:23.985Z,36.90
2019-02-24T14:04:54.422Z,37.46
2019-02-24T14:07:26.073Z,37.19
2019-02-24T14:09:58.450Z,37.01
2019-02-24T14:12:30.096Z,37.26
2019-02-24T14:15:00.965Z,37.26
2019-02-24T14:17:32.075Z,37.32
2019-02-24T14:20:04.364Z,37.09
2019-02-24T14:22:35.904Z,37.37
2019-02-24T14:25:10.761Z,37.91
2019-02-24T14:27:41.972Z,37.83
2019-02-24T14:30:18.159Z,37.85
2019-02-24T14:32:49.478Z,37.90
2019-02-24T14:35:25.423Z,37.95
2019-02-24T14:37:58.114Z,38.38
2019-02-24T14:40:29.086Z,38.15
2019-02-24T14:43:00.405Z,38.40
2019-02-24T14:45:32.157Z,38.15
2019-02-24T14:48:03.507Z,38.23
2019-02-24T14:50:34.278Z,38.18
2019-02-24T14:53:06.148Z,38.22
2019-02-24T14:55:39.444Z,38.48
2019-02-24T14:58:10.792Z,38.29
2019-02-24T15:00:42.608Z,38.08
2019-02-24T15:03:15.224Z,38.23
2019-02-24T15:05:46.834Z,38.01
2019-02-24T15:08:17.701Z,37.95
2019-02-24T15:10:48.815Z,38.15
2019-02-24T15:13:20.053Z,38.24
2019-02-24T15:15:51.814Z,38.22
2019-02-24T15:18:23.375Z,38.50
2019-02-24T15:20:55.022Z,38.52
2019-02-24T15:23:26.571Z,38.46
2019-02-24T15:25:57.776Z,38.49
2019-02-24T15:28:29.512Z,38.76
2019-02-24T15:31:01.240Z,38.70
2019-02-24T15:33:32.900Z,39.26
2019-02-24T15:36:05.105Z,39.20
2019-02-24T15:38:36.611Z,39.17
2019-02-24T15:41:08.466Z,39.17
2019-02-24T15:43:40.533Z,39.27
2019-02-24T15:46:11.808Z,39.21
2019-02-24T15:48:43.434Z,39.29
2019-02-24T15:51:16.842Z,39.63
2019-02-24T15:53:48.995Z,39.51
2019-02-24T15:56:20.439Z,39.48
2019-02-24T15:58:51.213Z,39.33
2019-02-24T16:01:22.425Z,39.89
2019-02-24T16:03:53.458Z,39.91
2019-02-24T16:06:24.405Z,40.16
2019-02-24T16:08:56.369Z,39.94
2019-02-24T16:11:28.126Z,39.90
2019-02-24T16:13:59.639Z,39.79
2019-02-24T16:16:31.221Z,40.09
2019-02-24T16:19:02.685Z,40.04
2019-02-24T16:21:33.814Z,40.05
2019-02-24T16:24:05.296Z,40.33
2019-02-24T16:26:36.922Z,39.88
2019-02-24T16:29:07.688Z,40.02
2019-02-24T16:31:38.808Z,39.92
2019-02-24T16:34:10.891Z,40.29
2019-02-24T16:36:41.800Z,40.59
2019-02-24T16:39:13.047Z,40.18
2019-02-24T16:41:44.709Z,40.15
2019-02-24T16:44:16.703Z,40.02
2019-02-24T16:46:48.018Z,40.29
2019-02-24T16:49:19.667Z,40.36
2019-02-24T16:51:50.437Z,40.33
2019-02-24T16:54:21.649Z,40.72
2019-02-24T16:56:52.319Z,41.32
2019-02-24T16:59:23.521Z,41.50
2019-02-24T17:01:55.257Z,41.39
2019-02-24T17:04:27.154Z,41.33
2019-02-24T17:06:57.906Z,41.62
2019-02-24T17:09:29.124Z,41.90
2019-02-24T17:12:00.789Z,42.06
2019-02-24T17:14:32.123Z,41.88
2019-02-24T17:17:07.153Z,42.08
2019-02-24T17:19:40.985Z,42.37
2019-02-24T17:22:12.519Z,42.15
2019-02-24T17:24:44.068Z,42.14
2019-02-24T17:27:15.628Z,42.26
2019-02-24T17:29:47.385Z,42.01
2019-02-24T17:32:18.323Z,42.42
2019-02-24T17:34:49.377Z,42.69
2019-02-24T17:37:21.337Z,42.78
2019-02-24T17:39:53.078Z,43.17
2019-02-24T17:42:25.227Z,43.37
2019-02-24T17:44:56.496Z,43.87
2019-02-24T17:47:27.251Z,43.33
2019-02-24T17:49:58.166Z,43.89
2019-02-24T17:52:31.276Z,44.02
2019-02-24T17:55:03.128Z,44.26
2019-02-24T17:57:34.683Z,44.52
2019-02-24T18:00:23.123Z,44.66
2019-02-24T18:02:55.124Z,44.49
2019-02-24T18:05:26.934Z,44.47
2019-02-24T18:08:01.208Z,44.83
2019-02-24T18:10:32.498Z,44.38
2019-02-24T18:13:03.261Z,44.51
2019-02-24T18:15:34.484Z,44.49
2019-02-24T18:18:06.058Z,44.72
2019-02-24T18:20:37.571Z,44.58
2019-02-24T18:23:09.334Z,44.22
2019-02-24T18:25:41.307Z,44.52
2019-02-24T18:28:13.873Z,44.65
2019-02-24T18:30:45.431Z,44.60
2019-02-24T18:33:17.082Z,44.62
2019-02-24T18:35:48.323Z,44.27
2019-02-24T18:38:19.982Z,44.60
2019-02-24T18:40:51.253Z,44.65
2019-02-24T18:43:22.165Z,44.22
2019-02-24T18:45:52.891Z,43.87
2019-02-24T18:48:24.056Z,43.97
2019-02-24T18:50:55.592Z,44.18
2019-02-24T18:53:27.276Z,44.15
2019-02-24T18:56:01.570Z,44.04
2019-02-24T18:58:33.327Z,44.31
2019-02-24T19:01:04.297Z,44.25
2019-02-24T19:03:35.764Z,44.69
2019-02-24T19:06:07.879Z,44.52
2019-02-24T19:08:38.704Z,44.38
2019-02-24T19:11:09.852Z,44.74
2019-02-24T19:13:41.507Z,44.38
2019-02-24T19:16:13.265Z,44.52
2019-02-24T19:18:45.127Z,44.96
2019-02-24T19:21:15.685Z,44.49
2019-02-24T19:23:48.225Z,44.61
2019-02-24T19:26:19.682Z,44.78
2019-02-24T19:28:50.342Z,45.33
2019-02-24T19:31:21.480Z,45.46
2019-02-24T19:33:55.309Z,45.33
2019-02-24T19:36:26.918Z,45.36
2019-02-24T19:38:58.396Z,45.08
2019-02-24T19:41:29.316Z,45.35
2019-02-24T19:44:00.727Z,45.73
2019-02-24T19:46:32.333Z,45.34
2019-02-24T19:49:03.087Z,45.12
2019-02-24T19:51:34.185Z,45.26
2019-02-24T19:54:05.730Z,45.16
2019-02-24T19:56:38.006Z,45.54
2019-02-24T19:59:09.561Z,45.65
2019-02-24T20:01:43.878Z,45.89
2019-02-24T20:04:16.249Z,45.75
2019-02-24T20:06:47.703Z,45.77
2019-02-24T20:09:19.415Z,45.45
2019-02-24T20:11:53.752Z,45.54
2019-02-24T20:14:25.938Z,45.92
2019-02-24T20:16:56.600Z,45.51
2019-02-24T20:19:28.700Z,45.59
2019-02-24T20:21:59.399Z,45.71
2019-02-24T20:24:33.105Z,46.14
2019-02-24T20:27:03.387Z,46.36
2019-02-24T20:29:34.257Z,46.33
2019-02-24T20:32:05.278Z,46.35
2019-02-24T20:34:36.516Z,46.62
2019-02-24T20:37:07.299Z,46.24
2019-02-24T20:39:38.385Z,46.95
2019-02-24T20:42:10.454Z,46.80
2019-02-24T20:44:42.009Z,46.67
2019-02-24T20:47:13.565Z,46.92
2019-02-24T20:49:44.908Z,46.87
2019-02-24T20:52:17.595Z,47.26
2019-02-24T20:54:48.827Z,47.51
2019-02-24T20:57:19.596Z,47.19
2019-02-24T20:59:50.806Z,47.50
2019-02-24T21:02:22.740Z,47.36
2019-02-24T21:04:54.016Z,47.23
2019-02-24T21:07:26.335Z,47.58
2019-02-24T21:09:58.276Z,47.66
2019-02-24T21:12:29.914Z,47.66
2019-02-24T21:15:01.794Z,47.84
2019-02-24T21:17:45.409Z,47.87
2019-02-24T21:20:25.352Z,47.84
2019-02-24T21:22:56.915Z,48.52
2019-02-24T21:25:28.554Z,48.30
2019-02-24T21:28:00.005Z,48.30
2019-02-24T21:30:31.835Z,48.00
2019-02-24T21:33:02.938Z,48.62
2019-02-24T21:35:34.562Z,48.64
2019-02-24T21:38:05.327Z,48.70
2019-02-24T21:40:36.552Z,48.70
2019-02-24T21:43:08.090Z,48.50
2019-02-24T21:45:39.269Z,48.50
2019-02-24T21:48:10.992Z,48.29
2019-02-24T21:50:41.840Z,48.69
2019-02-24T21:53:13.386Z,49.08
2019-02-24T21:55:44.938Z,48.75
2019-02-24T21:58:16.584Z,48.92
2019-02-24T22:00:47.353Z,49.40
2019-02-24T22:03:18.759Z,49.41
2019-02-24T22:05:50.011Z,49.32
2019-02-24T22:08:21.118Z,49.51
2019-02-24T22:10:52.307Z,49.63
2019-02-24T22:13:23.854Z,49.58
2019-02-24T22:15:55.204Z,49.62
2019-02-24T22:18:26.981Z,49.52
2019-02-24T22:20:58.624Z,49.94
2019-02-24T22:23:29.482Z,49.89
2019-02-24T22:26:00.497Z,49.32
2019-02-24T22:28:33.088Z,49.99
2019-02-24T22:31:04.620Z,49.92
2019-02-24T22:33:36.277Z,49.83
2019-02-24T22:36:07.142Z,49.60
2019-02-24T22:38:38.150Z,49.24
2019-02-24T22:41:09.811Z,49.47
2019-02-24T22:43:40.577Z,50.04
2019-02-24T22:46:11.594Z,50.27
2019-02-24T22:48:43.465Z,50.05
2019-02-24T22:51:15.215Z,50.57
2019-02-24T22:53:48.605Z,49.82
2019-02-24T22:56:20.147Z,49.76
2019-02-24T22:58:51.219Z,49.70
2019-02-24T23:01:23.973Z,49.46
2019-02-24T23:04:07.619Z,49.81
2019-02-24T23:06:39.318Z,49.37
2019-02-24T23:09:12.005Z,50.05
2019-02-24T23:11:44.020Z,50.15
2019-02-24T23:14:16.066Z,49.91
2019-02-24T23:16:47.619Z,49.60
2019-02-24T23:19:18.384Z,49.68
2019-02-24T23:21:49.491Z,50.64
2019-02-24T23:24:21.153Z,50.04
2019-02-24T23:26:52.705Z,50.11
2019-02-24T23:29:24.253Z,50.41
2019-02-24T23:31:55.604Z,50.64
2019-02-24T23:34:27.774Z,50.66
2019-02-24T23:36:59.448Z,50.55
2019-02-24T23:39:30.673Z,50.59
2019-02-24T23:42:02.119Z,50.69
2019-02-24T23:44:33.092Z,50.43
2019-02-24T23:47:03.996Z,50.67
2019-02-24T23:49:35.549Z,50.58
2019-02-24T23:52:08.100Z,50.78
2019-02-24T23:54:41.425Z,50.55
2019-02-24T23:57:14.092Z,50.62
2019-02-24T23:59:45.440Z,51.63
